Terminal Aerodrome Forecast
Issued by NWS

Home | Current Version | Previous Version | Graphics & Text | Print | Product List | Glossary On
Versions: 1 2 3 4 5 6 7 8 9 10 11 12 13 14 15 16 17 18 19 20 21
471
FTUS43 KGRB 030525
TAFAUW
TAF
KAUW 030525Z 0306/0406 03007KT 1 1/2SM -SN SCT006 OVC010
     FM031200 35009G16KT 2SM -SN SCT006 OVC012
      TEMPO 0314/0318 3/4SM -SN BR BKN006
     FM032000 30012G18KT P6SM BKN015
     FM032300 30008KT P6SM SCT015 BKN030=

USA.gov is the U.S. government's official web portal to all federal, state and local government web resources and services.